Midland, TX

8:01 PM CDT on August 24, 2016 (GMT -0500)
Midland International | | Change Station

Elev 2861 ft 31.95 °N, 102.21 °W | Updated 8 minutes ago

Partly Cloudy
Partly Cloudy
77 °F
Feels Like 77 °F
N
0
Wind Variable Wind from North

Today
High -- | Low -- °F
--% Chance of Precip.
Yesterday
High -- | Low -- °F
Precip. -- in
Pressure 29.94 in
Visibility 10.0 miles
Clouds Few 7000 ft
Dew Point 62 °F
Humidity 60%
Rainfall 0.01 in
Snow Depth Not available.
7:19 AM 8:21 PM
Waning Gibbous, 51% visible
METAR KMAF 250053Z 00000KT 10SM FEW070 25/17 A3006 RMK AO2 SLP139 T02500167
Pressure 29.94 in
Visibility 10.0 miles
Clouds Few 7000 ft
Dew Point 62 °F
Humidity 60%
Rainfall 0.01 in
Snow Depth Not available.
7:19 AM 8:21 PM
Waning Gibbous, 51% visible
METAR KMAF 250053Z 00000KT 10SM FEW070 25/17 A3006 RMK AO2 SLP139 T02500167

10-Day Weather Forecast

Almanac

Astronomy

Aug. 24, 2016 Rise Set
Actual Time
Civil Twilight
Nautical Twilight
Astronomical Twilight
Moon
Length of Visible Light
Length of Day
Tomorrow will be .
, % of the Moon is Illuminated

Today's Extremes

State Highs State Lows

Community

WunderPhotos

Upload Photos

1,934,757 photos uploaded!

WunderBlog® & News

Nearby

Air Quality

  Air Quality AQ Index Pollutant
Not available.

Snow Depth

Station Depth Elevation

Earthquake Activity

City Distance Mag. Time & Date
Minimum magnitude displayed is 2.5.

Coastal Water Temperatures

Place Temperature

Stations

Nearby Weather Stations

Station Location Temp. Windchill Dew Point Humidity Wind Precip. Elev Updated Type
                   

Watches & Warnings

There are currently no watches in effect.